Time;durP1;ratioP1;P1;durP2;ratioP2;P2;SDS_P1;SDS_P2;PMS_P1;PMS_P2;Temp;Humidity;BMP_temperature;BMP_pressure;BME280_temperature;BME280_humidity;BME280_pressure;Samples;Min_cycle;Max_cycle;Signal;HPM_P1;HPM_P2
2023/03/26 00:01:16;;;;;;;14.73;2.72;;;;;;;;;;4953528;28;20050;-64
2023/03/26 00:03:45;;;;;;;14.40;2.88;;;;;;;;;;4984068;28;20051;-63
2023/03/26 00:06:13;;;;;;;19.65;2.65;;;;;;;;;;4980729;28;20038;-64
2023/03/26 00:08:40;;;;;;;11.48;2.35;;;;;;;;;;4953561;28;20077;-64
2023/03/26 00:11:08;;;;;;;15.05;2.33;;;;;;;;;;4958680;28;20133;-63
2023/03/26 00:13:34;;;;;;;15.35;2.17;;;;;;;;;;4962206;28;20046;-63
2023/03/26 00:16:01;;;;;;;14.88;2.20;;;;;;;;;;4970292;28;20050;-63
2023/03/26 00:18:33;;;;;;;17.15;2.92;;;;;;;;;;4960737;28;20454;-63
2023/03/26 00:21:01;;;;;;;18.23;2.67;;;;;;;;;;4964276;28;20082;-64
2023/03/26 00:23:27;;;;;;;9.48;1.58;;;;;;;;;;4964525;28;20469;-64
2023/03/26 00:25:54;;;;;;;13.85;2.22;;;;;;;;;;4977902;28;20078;-63
2023/03/26 00:28:21;;;;;;;10.85;2.08;;;;;;;;;;4981903;28;20054;-64
2023/03/26 00:30:47;;;;;;;18.13;4.43;;;;;;;;;;4964145;28;20054;-63
2023/03/26 00:33:16;;;;;;;15.18;3.00;;;;;;;;;;4938063;28;20058;-63
2023/03/26 00:35:45;;;;;;;15.38;2.42;;;;;;;;;;4954298;28;20517;-63
2023/03/26 00:38:11;;;;;;;11.50;2.17;;;;;;;;;;4989021;28;20084;-64
2023/03/26 00:40:42;;;;;;;13.95;2.92;;;;;;;;;;4959585;28;20108;-64
2023/03/26 00:43:09;;;;;;;14.20;1.92;;;;;;;;;;4949810;28;20046;-63
2023/03/26 00:45:35;;;;;;;18.35;2.72;;;;;;;;;;4979321;28;20054;-63
2023/03/26 00:48:01;;;;;;;14.40;2.25;;;;;;;;;;4988310;28;20038;-64
2023/03/26 00:50:27;;;;;;;15.25;2.33;;;;;;;;;;4995119;28;20050;-63
2023/03/26 00:52:54;;;;;;;13.77;3.78;;;;;;;;;;5010953;28;20054;-63
2023/03/26 00:55:22;;;;;;;13.93;2.78;;;;;;;;;;4993725;28;20050;-64
2023/03/26 00:57:48;;;;;;;18.25;3.03;;;;;;;;;;4970105;28;20049;-63
2023/03/26 01:00:14;;;;;;;8.15;2.40;;;;;;;;;;5000504;28;20050;-64
2023/03/26 01:02:43;;;;;;;15.80;2.45;;;;;;;;;;5002439;28;20133;-63
2023/03/26 01:05:45;;;;;;;12.65;2.83;;;;;;;;;;4965556;28;20058;-63
2023/03/26 01:08:17;;;;;;;12.88;2.58;;;;;;;;;;4917581;29;20083;-64
2023/03/26 01:10:49;;;;;;;15.18;2.70;;;;;;;;;;4923350;29;20528;-63
2023/03/26 01:13:16;;;;;;;15.27;2.58;;;;;;;;;;4907254;29;20044;-63
2023/03/26 01:15:42;;;;;;;12.18;2.08;;;;;;;;;;4904885;29;20099;-63
2023/03/26 01:18:12;;;;;;;16.33;2.20;;;;;;;;;;4913355;29;20114;-63
2023/03/26 01:20:45;;;;;;;14.50;2.40;;;;;;;;;;4928021;29;20114;-63
2023/03/26 01:23:12;;;;;;;14.75;2.15;;;;;;;;;;4912372;29;20060;-64
2023/03/26 01:25:42;;;;;;;15.50;2.40;;;;;;;;;;4904356;29;20052;-63
2023/03/26 01:28:11;;;;;;;16.48;3.10;;;;;;;;;;4926827;29;20044;-63
2023/03/26 01:30:43;;;;;;;17.02;2.72;;;;;;;;;;4919661;29;20512;-63
2023/03/26 01:33:13;;;;;;;15.00;3.83;;;;;;;;;;4930436;29;20052;-63
2023/03/26 01:35:50;;;;;;;14.67;2.60;;;;;;;;;;4915267;29;20066;-63
2023/03/26 01:38:36;;;;;;;16.13;3.13;;;;;;;;;;4929608;29;20346;-64
2023/03/26 01:41:15;;;;;;;11.57;3.30;;;;;;;;;;4929813;28;20048;-63
2023/03/26 01:43:57;;;;;;;15.15;4.97;;;;;;;;;;4990003;28;20139;-64
2023/03/26 01:46:25;;;;;;;16.05;2.75;;;;;;;;;;5009833;28;20046;-63
2023/03/26 01:48:51;;;;;;;16.33;2.75;;;;;;;;;;4979627;28;20050;-64
2023/03/26 01:51:31;;;;;;;18.98;3.88;;;;;;;;;;4971128;28;20090;-64
2023/03/26 01:53:58;;;;;;;18.98;3.17;;;;;;;;;;5010880;28;20096;-64
2023/03/26 01:56:32;;;;;;;17.58;2.55;;;;;;;;;;5008307;28;20040;-63
2023/03/26 01:59:07;;;;;;;22.55;3.95;;;;;;;;;;4978044;28;20038;-63
2023/03/26 02:01:43;;;;;;;18.05;3.75;;;;;;;;;;5009875;28;20042;-63
2023/03/26 02:04:24;;;;;;;14.45;2.90;;;;;;;;;;4961438;28;20042;-64
2023/03/26 02:06:50;;;;;;;;;;;;;;;;;;4984882;28;20042;-63
2023/03/26 02:09:19;;;;;;;18.80;3.70;;;;;;;;;;5009705;28;20020;-63
2023/03/26 02:11:46;;;;;;;12.30;2.45;;;;;;;;;;4984307;28;20047;-63
2023/03/26 02:14:13;;;;;;;15.48;2.80;;;;;;;;;;4990843;28;20170;-64
2023/03/26 02:16:39;;;;;;;11.77;2.60;;;;;;;;;;4962311;28;20054;-63
2023/03/26 02:19:14;;;;;;;22.85;3.38;;;;;;;;;;5006945;28;20042;-63
2023/03/26 02:21:40;;;;;;;13.98;4.00;;;;;;;;;;4986499;28;20241;-63
2023/03/26 02:24:06;;;;;;;11.38;2.90;;;;;;;;;;4989456;28;20514;-63
2023/03/26 02:26:33;;;;;;;20.63;3.67;;;;;;;;;;4977059;28;20042;-63
2023/03/26 02:29:03;;;;;;;16.48;3.15;;;;;;;;;;4971746;28;20042;-63
2023/03/26 02:31:29;;;;;;;18.50;4.43;;;;;;;;;;4970912;28;20045;-63
2023/03/26 02:33:56;;;;;;;22.48;4.47;;;;;;;;;;4995976;28;20049;-63
2023/03/26 02:36:29;;;;;;;21.30;3.97;;;;;;;;;;4993803;28;20045;-64
2023/03/26 02:38:56;;;;;;;14.57;4.32;;;;;;;;;;4960005;28;20522;-63
2023/03/26 02:41:22;;;;;;;19.52;4.88;;;;;;;;;;4991599;28;20042;-63
2023/03/26 02:43:49;;;;;;;16.40;3.90;;;;;;;;;;4991047;28;20053;-63
2023/03/26 02:46:15;;;;;;;15.13;4.03;;;;;;;;;;5000554;28;20050;-64
2023/03/26 02:48:41;;;;;;;16.50;4.60;;;;;;;;;;4969029;28;20093;-63
2023/03/26 02:51:07;;;;;;;21.65;8.07;;;;;;;;;;4972882;28;20054;-64
2023/03/26 02:53:36;;;;;;;15.73;7.80;;;;;;;;;;4987743;28;20147;-64
2023/03/26 02:56:02;;;;;;;18.92;6.80;;;;;;;;;;4947741;28;20503;-64
2023/03/26 02:58:28;;;;;;;17.90;5.82;;;;;;;;;;4975993;28;20483;-63
2023/03/26 03:00:55;;;;;;;17.08;4.88;;;;;;;;;;4944133;28;20038;-63
2023/03/26 03:03:25;;;;;;;17.83;3.38;;;;;;;;;;4951636;28;20125;-63
2023/03/26 03:05:52;;;;;;;18.33;3.33;;;;;;;;;;4965061;28;20053;-63
2023/03/26 03:08:18;;;;;;;17.25;3.20;;;;;;;;;;4962949;28;20049;-63
2023/03/26 03:10:55;;;;;;;15.98;3.35;;;;;;;;;;4944871;28;20491;-63
2023/03/26 03:13:21;;;;;;;9.18;2.63;;;;;;;;;;4992249;28;20084;-63
2023/03/26 03:15:47;;;;;;;19.10;6.10;;;;;;;;;;5027502;23;20086;-63
2023/03/26 03:18:13;;;;;;;16.25;4.05;;;;;;;;;;4978015;28;20108;-64
2023/03/26 03:20:40;;;;;;;19.88;5.72;;;;;;;;;;5011290;28;20085;-63
2023/03/26 03:23:06;;;;;;;18.90;4.45;;;;;;;;;;4973360;28;20057;-63
2023/03/26 03:25:32;;;;;;;16.35;4.05;;;;;;;;;;5017908;28;20049;-63
2023/03/26 03:27:58;;;;;;;19.27;4.57;;;;;;;;;;5010887;28;20444;-63
2023/03/26 03:30:45;;;;;;;15.18;3.83;;;;;;;;;;5017502;23;20058;31
2023/03/26 03:33:34;;;;;;;16.63;4.40;;;;;;;;;;4905920;29;20051;-63
2023/03/26 03:36:00;;;;;;;18.00;4.32;;;;;;;;;;4899517;29;20084;-63
2023/03/26 03:38:26;;;;;;;19.50;5.97;;;;;;;;;;4885642;29;20040;-63
2023/03/26 03:40:54;;;;;;;18.25;4.30;;;;;;;;;;4909830;29;20154;-64
2023/03/26 03:43:20;;;;;;;24.15;4.50;;;;;;;;;;4901807;29;20056;-64
2023/03/26 03:45:46;;;;;;;14.00;5.03;;;;;;;;;;4911000;29;20048;-63
2023/03/26 03:48:12;;;;;;;18.95;4.25;;;;;;;;;;4898194;29;20055;-63
2023/03/26 03:50:38;;;;;;;10.48;3.03;;;;;;;;;;4914209;29;20048;-63
2023/03/26 03:53:04;;;;;;;15.23;4.40;;;;;;;;;;4906979;29;20528;-63
2023/03/26 03:55:30;;;;;;;13.55;3.38;;;;;;;;;;4904390;29;20861;-63
2023/03/26 03:57:58;;;;;;;18.83;3.60;;;;;;;;;;4909975;29;20054;-63
2023/03/26 04:00:24;;;;;;;10.90;2.95;;;;;;;;;;4909700;29;20100;-64
2023/03/26 04:02:53;;;;;;;12.25;3.42;;;;;;;;;;4903879;29;20051;-63
2023/03/26 04:05:19;;;;;;;12.07;4.43;;;;;;;;;;4911118;29;20104;-64
2023/03/26 04:07:45;;;;;;;16.25;3.25;;;;;;;;;;4903815;29;20099;-64
2023/03/26 04:10:14;;;;;;;13.07;3.40;;;;;;;;;;4911286;29;20052;-64
2023/03/26 04:12:40;;;;;;;15.13;5.05;;;;;;;;;;4902658;29;20052;-63
2023/03/26 04:15:06;;;;;;;18.65;3.67;;;;;;;;;;4889165;29;20055;-64
2023/03/26 04:17:32;;;;;;;10.77;3.10;;;;;;;;;;4910129;29;20082;-63
2023/03/26 04:20:04;;;;;;;10.23;4.03;;;;;;;;;;4913934;29;20073;-63
2023/03/26 04:22:33;;;;;;;16.83;3.80;;;;;;;;;;4905313;29;20876;-64
2023/03/26 04:25:01;;;;;;;13.75;3.33;;;;;;;;;;4914587;29;20048;-64
2023/03/26 04:27:30;;;;;;;19.63;4.55;;;;;;;;;;4896308;29;20040;-64
2023/03/26 04:29:57;;;;;;;17.70;3.28;;;;;;;;;;4908030;29;20114;-63
2023/03/26 04:32:25;;;;;;;18.88;3.58;;;;;;;;;;4923766;29;20059;-63
2023/03/26 04:34:51;;;;;;;20.10;4.10;;;;;;;;;;4931370;29;20048;-64
2023/03/26 04:37:25;;;;;;;12.23;4.78;;;;;;;;;;4932121;29;20055;-64
2023/03/26 04:39:51;;;;;;;16.58;3.88;;;;;;;;;;4916908;29;20066;-64
2023/03/26 04:42:18;;;;;;;23.13;4.18;;;;;;;;;;4932973;29;20065;-64
2023/03/26 04:44:44;;;;;;;18.08;3.88;;;;;;;;;;4914037;29;20059;-63
2023/03/26 04:47:12;;;;;;;16.55;3.65;;;;;;;;;;4897270;29;20048;-64
2023/03/26 04:49:38;;;;;;;16.65;3.67;;;;;;;;;;4913321;29;20043;-64
2023/03/26 04:52:04;;;;;;;16.88;3.90;;;;;;;;;;4933471;29;20051;-64
2023/03/26 04:54:30;;;;;;;12.68;4.05;;;;;;;;;;4915331;29;20083;-63
2023/03/26 04:56:58;;;;;;;12.05;4.15;;;;;;;;;;4932971;29;20060;-63
2023/03/26 04:59:25;;;;;;;10.80;4.32;;;;;;;;;;4931836;29;20048;-64
2023/03/26 05:01:52;;;;;;;9.63;2.70;;;;;;;;;;4932281;29;20098;-64
2023/03/26 05:04:18;;;;;;;10.57;3.33;;;;;;;;;;4915201;29;20043;-64
2023/03/26 05:06:44;;;;;;;8.45;2.92;;;;;;;;;;4932921;29;20043;-64
2023/03/26 05:09:10;;;;;;;9.85;4.28;;;;;;;;;;4931761;29;20050;-63
2023/03/26 05:11:36;;;;;;;15.25;3.83;;;;;;;;;;4933172;29;20052;-64
2023/03/26 05:14:02;;;;;;;13.30;3.83;;;;;;;;;;4932558;29;20050;-64
2023/03/26 05:16:29;;;;;;;15.80;3.50;;;;;;;;;;4934984;29;20044;-64
2023/03/26 05:18:55;;;;;;;18.58;3.78;;;;;;;;;;4935565;29;20377;-63
2023/03/26 05:21:21;;;;;;;16.83;3.75;;;;;;;;;;4935969;29;20519;-63
2023/03/26 05:23:47;;;;;;;20.98;4.03;;;;;;;;;;4935191;29;20044;-63
2023/03/26 05:26:13;;;;;;;17.17;4.65;;;;;;;;;;4918146;29;20565;-64
2023/03/26 05:28:39;;;;;;;13.95;5.65;;;;;;;;;;4943781;29;20497;-63
2023/03/26 05:31:07;;;;;;;18.10;4.63;;;;;;;;;;4935816;29;20083;-63
2023/03/26 05:33:33;;;;;;;11.60;3.67;;;;;;;;;;4934556;29;20078;-64
2023/03/26 05:36:01;;;;;;;20.42;4.18;;;;;;;;;;4935285;29;20050;-64
2023/03/26 05:38:30;;;;;;;14.43;4.25;;;;;;;;;;4917230;29;20051;-63
2023/03/26 05:40:57;;;;;;;17.17;4.13;;;;;;;;;;4915668;29;20413;-64
2023/03/26 05:43:23;;;;;;;19.38;4.63;;;;;;;;;;4930774;29;20047;-64
2023/03/26 05:45:49;;;;;;;16.90;4.32;;;;;;;;;;4934036;29;20051;-63
2023/03/26 05:48:16;;;;;;;18.55;4.18;;;;;;;;;;4935234;29;20051;-63
2023/03/26 05:50:42;;;;;;;26.27;5.15;;;;;;;;;;4919304;29;20610;-63
2023/03/26 05:53:08;;;;;;;21.55;4.95;;;;;;;;;;4935910;29;20519;-63
2023/03/26 05:55:34;;;;;;;22.52;4.20;;;;;;;;;;4934224;29;20043;-64
2023/03/26 05:58:00;;;;;;;16.67;4.50;;;;;;;;;;4936185;29;20046;-63
2023/03/26 06:00:26;;;;;;;26.02;4.95;;;;;;;;;;4909706;29;20054;-63
2023/03/26 06:02:53;;;;;;;20.83;4.90;;;;;;;;;;4935256;29;20062;-63
2023/03/26 06:05:20;;;;;;;24.02;4.97;;;;;;;;;;4934250;29;20051;-63
2023/03/26 06:07:46;;;;;;;25.00;4.95;;;;;;;;;;4916222;29;20050;-64
2023/03/26 06:10:12;;;;;;;18.48;4.05;;;;;;;;;;4936075;29;20095;-64
2023/03/26 06:12:38;;;;;;;26.70;4.47;;;;;;;;;;4933420;29;20079;-64
2023/03/26 06:15:04;;;;;;;14.63;3.85;;;;;;;;;;4918334;29;20047;-64
2023/03/26 06:17:30;;;;;;;23.23;4.85;;;;;;;;;;4933492;29;20819;-64
2023/03/26 06:19:57;;;;;;;19.05;4.65;;;;;;;;;;4933319;29;20063;-64
2023/03/26 06:22:23;;;;;;;18.15;4.00;;;;;;;;;;4934647;29;20055;-64
2023/03/26 06:24:51;;;;;;;26.95;5.10;;;;;;;;;;4935009;29;20055;-64
2023/03/26 06:27:17;;;;;;;23.10;3.20;;;;;;;;;;4932557;29;20054;-64
2023/03/26 06:29:43;;;;;;;15.75;3.80;;;;;;;;;;4918001;29;20083;-64
2023/03/26 06:32:09;;;;;;;24.05;3.92;;;;;;;;;;4935363;29;20409;-64
2023/03/26 06:34:35;;;;;;;20.65;4.30;;;;;;;;;;4934784;29;20489;-63
2023/03/26 06:37:01;;;;;;;19.00;3.58;;;;;;;;;;4928123;29;20055;-64
2023/03/26 06:39:27;;;;;;;17.33;3.05;;;;;;;;;;4912254;29;20048;-64
2023/03/26 06:41:53;;;;;;;16.80;3.10;;;;;;;;;;4931416;29;20051;-63
2023/03/26 06:44:19;;;;;;;19.75;3.90;;;;;;;;;;4929334;29;20093;-63
2023/03/26 06:46:45;;;;;;;17.27;3.95;;;;;;;;;;4933655;29;20048;-64
2023/03/26 06:49:11;;;;;;;22.73;3.50;;;;;;;;;;4933678;29;21634;-64
2023/03/26 06:51:39;;;;;;;15.98;2.70;;;;;;;;;;4933798;29;20048;-63
2023/03/26 06:54:06;;;;;;;17.02;3.00;;;;;;;;;;4929381;29;20079;-63
2023/03/26 06:56:58;;;;;;;17.48;2.35;;;;;;;;;;5019603;23;20065;31
2023/03/26 06:59:24;;;;;;;21.10;3.53;;;;;;;;;;4894815;29;20049;-64
2023/03/26 07:01:50;;;;;;;20.10;3.05;;;;;;;;;;4903241;29;20059;-64
2023/03/26 07:04:17;;;;;;;22.02;3.60;;;;;;;;;;4902491;29;20083;-64
2023/03/26 07:06:43;;;;;;;16.23;3.13;;;;;;;;;;4885063;29;20051;-64
2023/03/26 07:09:09;;;;;;;14.60;2.80;;;;;;;;;;4896974;29;20128;-64
2023/03/26 07:11:35;;;;;;;20.85;2.85;;;;;;;;;;4881187;29;20525;-64
2023/03/26 07:14:01;;;;;;;21.38;2.80;;;;;;;;;;4898993;29;20052;-64
2023/03/26 07:16:27;;;;;;;17.50;3.88;;;;;;;;;;4895592;29;20045;-64
2023/03/26 07:18:54;;;;;;;14.00;2.78;;;;;;;;;;4880292;29;20382;-65
2023/03/26 07:21:20;;;;;;;20.65;2.63;;;;;;;;;;4878945;29;20044;-64
2023/03/26 07:23:46;;;;;;;11.95;2.53;;;;;;;;;;4876844;29;20098;-64
2023/03/26 07:26:33;;;;;;;22.48;2.67;;;;;;;;;;4877297;29;20146;-64
2023/03/26 07:29:23;;;;;;;23.70;2.60;;;;;;;;;;4878973;29;20135;-64
2023/03/26 07:31:55;;;;;;;13.48;2.47;;;;;;;;;;4885696;29;20056;-65
2023/03/26 07:34:21;;;;;;;13.52;2.30;;;;;;;;;;4866055;29;20408;-65
2023/03/26 07:36:57;;;;;;;14.80;2.63;;;;;;;;;;4904460;29;20044;-64
2023/03/26 07:39:40;;;;;;;26.85;2.80;;;;;;;;;;4878097;29;20135;-65
2023/03/26 07:42:21;;;;;;;17.05;2.95;;;;;;;;;;4878010;29;20060;-64
2023/03/26 07:44:54;;;;;;;14.85;2.65;;;;;;;;;;4896922;29;20049;-64
2023/03/26 07:47:27;;;;;;;11.75;2.22;;;;;;;;;;4895639;29;20041;-64
2023/03/26 07:49:54;;;;;;;17.75;2.45;;;;;;;;;;4876184;29;20059;-64
2023/03/26 07:52:20;;;;;;;16.40;2.30;;;;;;;;;;4880730;29;20478;-64
2023/03/26 07:54:46;;;;;;;8.75;1.85;;;;;;;;;;4892369;29;20067;-64
2023/03/26 07:57:32;;;;;;;26.77;2.95;;;;;;;;;;4894109;29;20121;-64
2023/03/26 08:00:21;;;;;;;15.70;2.78;;;;;;;;;;4881685;29;20524;-64
2023/03/26 08:03:24;;;;;;;14.68;2.80;;;7.50;99.90;;;;;;4895401;29;20051;-64
2023/03/26 08:05:50;;;;;;;18.25;3.83;;;;;;;;;;4895985;29;20044;-64
2023/03/26 08:08:19;;;;;;;19.80;2.40;;;;;;;;;;4895297;29;20148;-64
2023/03/26 08:11:16;;;;;;;23.75;2.38;;;7.10;99.90;;;;;;4894065;29;20128;-64
2023/03/26 08:13:55;;;;;;;17.50;3.33;;;;;;;;;;4878806;29;20071;-64
2023/03/26 08:16:24;;;;;;;12.32;2.00;;;;;;;;;;4878453;29;20056;-64
2023/03/26 08:19:03;;;;;;;19.85;2.63;;;;;;;;;;4894755;29;20044;-64
2023/03/26 08:21:38;;;;;;;14.00;2.65;;;;;;;;;;4894058;29;20048;-64
2023/03/26 08:24:15;;;;;;;17.95;2.70;;;;;;;;;;4895736;29;20067;-64
2023/03/26 08:26:47;;;;;;;13.25;2.35;;;;;;;;;;4883288;29;20052;-64
2023/03/26 08:29:26;;;;;;;13.85;2.95;;;;;;;;;;4894963;29;20040;-64
2023/03/26 08:31:54;;;;;;;13.50;1.98;;;;;;;;;;4892652;29;20112;-64
2023/03/26 08:34:21;;;;;;;17.90;2.30;;;;;;;;;;4901551;29;20079;-64
2023/03/26 08:36:47;;;;;;;13.38;1.90;;;;;;;;;;4895354;29;20140;-64
2023/03/26 08:39:13;;;;;;;16.35;3.28;;;;;;;;;;4894498;29;20104;-64
2023/03/26 08:41:58;;;;;;;15.40;1.90;;;;;;;;;;4896144;29;20048;-65
2023/03/26 08:45:11;;;;;;;12.77;2.50;;;7.90;99.90;;;;;;4895809;29;20123;-65
2023/03/26 08:47:54;;;;;;;13.63;2.50;;;;;;;;;;4819280;29;20062;-65
2023/03/26 08:50:20;;;;;;;10.07;2.17;;;;;;;;;;4814604;29;21702;-64
2023/03/26 08:52:52;;;;;;;12.13;2.08;;;;;;;;;;4833247;29;20074;-65
2023/03/26 08:55:24;;;;;;;15.95;2.08;;;;;;;;;;4821858;29;20050;-65
2023/03/26 08:57:59;;;;;;;12.40;2.05;;;;;;;;;;4835117;29;20230;-64
2023/03/26 09:00:28;;;;;;;32.72;5.70;;;;;;;;;;4808474;29;20055;-64
2023/03/26 09:03:31;;;;;;;14.25;3.00;;;7.50;99.90;;;;;;4831558;29;20152;-64
2023/03/26 09:06:02;;;;;;;19.63;2.67;;;;;;;;;;4817783;29;20614;-64
2023/03/26 09:08:28;;;;;;;17.88;2.63;;;;;;;;;;4829573;29;20214;-64
2023/03/26 09:10:57;;;;;;;15.80;2.90;;;;;;;;;;4833985;29;20947;-64
2023/03/26 09:13:50;;;;;;;21.10;2.50;;;;;;;;;;4796398;29;20054;-64
2023/03/26 09:16:34;;;;;;;16.17;2.00;;;;;;;;;;4808628;29;20086;-64
2023/03/26 09:19:25;;;;;;;19.15;4.05;;;;;;;;;;4835658;29;20136;-64
2023/03/26 09:22:03;;;;;;;17.38;2.97;;;;;;;;;;4837498;29;20050;-64
2023/03/26 09:24:35;;;;;;;24.30;2.35;;;;;;;;;;4883673;29;20099;-64
2023/03/26 09:27:07;;;;;;;11.48;2.40;;;;;;;;;;4898998;29;20048;-63
2023/03/26 09:29:52;;;;;;;17.92;1.85;;;7.90;99.90;;;;;;4881989;29;20052;-64
2023/03/26 09:32:37;;;;;;;20.25;2.30;;;;;;;;;;4900709;29;20132;-64
2023/03/26 09:35:09;;;;;;;16.42;2.33;;;;;;;;;;4902044;29;20049;-64
2023/03/26 09:37:40;;;;;;;12.70;3.42;;;;;;;;;;4897935;29;20081;-63
2023/03/26 09:40:17;;;;;;;14.68;3.15;;;;;;;;;;4898674;29;20051;-64
2023/03/26 09:42:45;;;;;;;17.00;3.47;;;;;;;;;;4882394;29;20505;-64
2023/03/26 09:45:38;;;;;;;13.15;2.38;;;8.80;99.90;;;;;;4880142;29;20041;-64
2023/03/26 09:48:17;;;;;;;17.50;3.30;;;;;;;;;;4880631;29;20056;-64
2023/03/26 09:50:46;;;;;;;9.20;2.42;;;;;;;;;;4866765;29;20493;-63
2023/03/26 09:53:12;;;;;;;10.75;1.45;;;;;;;;;;4898150;29;20044;-64
2023/03/26 09:55:47;;;;;;;12.77;2.33;;;;;;;;;;4881978;29;20514;-64
2023/03/26 10:00:59;;;;;;;13.15;1.77;;;;;;;;;;5050549;23;20106;-64
2023/03/26 10:03:29;;;;;;;11.65;2.30;;;;;;;;;;5001418;28;20495;-64
2023/03/26 10:05:57;;;;;;;24.40;2.38;;;;;;;;;;5004289;28;20037;-65
2023/03/26 10:08:51;;;;;;;17.15;2.13;;;8.30;99.90;;;;;;4987531;28;20050;-65
2023/03/26 10:11:17;;;;;;;14.55;3.53;;;;;;;;;;4992040;28;20061;-65
2023/03/26 10:13:52;;;;;;;20.42;3.97;;;;;;;;;;4988525;28;20046;-65
2023/03/26 10:16:25;;;;;;;10.02;2.20;;;;;;;;;;4999957;28;20046;-65
2023/03/26 10:18:57;;;;;;;11.57;2.05;;;;;;;;;;4970783;28;20053;-64
2023/03/26 10:21:23;;;;;;;13.98;1.88;;;;;;;;;;4995913;28;20429;-65
2023/03/26 10:24:16;;;;;;;17.60;2.60;;;8.50;99.90;;;;;;5014152;28;20060;-64
2023/03/26 10:27:01;;;;;;;15.50;2.13;;;;;;;;;;4996125;28;20057;-64
2023/03/26 10:29:36;;;;;;;10.05;2.03;;;;;;;;;;5013630;28;20049;-65
2023/03/26 10:32:12;;;;;;;12.20;1.98;;;;;;;;;;4996143;28;20050;-64
2023/03/26 10:34:47;;;;;;;12.27;1.70;;;;;;;;;;4978109;28;20073;-65
2023/03/26 10:37:20;;;;;;;15.45;2.40;;;;;;;;;;4977759;28;20057;-65
2023/03/26 10:39:49;;;;;;;9.43;3.17;;;;;;;;;;4992632;28;20120;-65
2023/03/26 10:42:19;;;;;;;13.20;2.00;;;;;;;;;;5012028;28;20041;-65
2023/03/26 10:44:54;;;;;;;11.20;1.60;;;;;;;;;;5000747;28;20042;-65
2023/03/26 10:47:20;;;;;;;14.27;2.60;;;;;;;;;;4988831;28;20099;-65
2023/03/26 10:49:50;;;;;;;7.78;1.58;;;;;;;;;;4993929;28;20042;-65
2023/03/26 10:52:20;;;;;;;13.63;1.60;;;;;;;;;;5010498;28;20038;-65
2023/03/26 10:55:12;;;;;;;14.40;2.17;;;9.00;99.90;;;;;;5013746;28;20037;-65
2023/03/26 10:57:41;;;;;;;11.82;2.38;;;;;;;;;;4974556;28;20081;-66
2023/03/26 11:00:28;;;;;;;16.02;2.88;;;;;;;;;;5011216;28;20065;-65
2023/03/26 11:03:00;;;;;;;9.32;2.13;;;;;;;;;;5013494;28;20050;-65
2023/03/26 11:05:35;;;;;;;11.82;1.67;;;;;;;;;;4988260;28;20394;-65
2023/03/26 11:08:04;;;;;;;10.55;2.33;;;;;;;;;;4976628;28;20046;-65
2023/03/26 11:10:30;;;;;;;11.63;2.33;;;;;;;;;;4989534;28;20064;-65
2023/03/26 11:13:01;;;;;;;12.07;1.63;;;;;;;;;;5010752;28;20133;-65
2023/03/26 11:15:37;;;;;;;13.52;2.00;;;;;;;;;;4993479;28;20053;-65
2023/03/26 11:18:09;;;;;;;16.60;2.03;;;;;;;;;;4976392;28;20125;-65
2023/03/26 11:20:38;;;;;;;17.20;2.13;;;;;;;;;;4997701;28;20100;-65
2023/03/26 11:23:14;;;;;;;10.45;1.83;;;;;;;;;;4979799;28;20103;-65
2023/03/26 11:26:03;;;;;;;15.70;3.22;;;9.20;99.90;;;;;;5013281;28;20053;-65
2023/03/26 11:28:30;;;;;;;10.82;1.83;;;;;;;;;;4980355;28;20054;-65
2023/03/26 11:31:01;;;;;;;13.35;1.77;;;;;;;;;;5013270;28;20406;-65
2023/03/26 11:33:48;;;;;;;12.85;2.30;;;;;;;;;;4979078;28;20083;-64
2023/03/26 11:36:25;;;;;;;9.65;1.50;;;;;;;;;;5008637;28;20539;-65
2023/03/26 11:38:54;;;;;;;16.98;3.13;;;;;;;;;;4995757;28;20125;-64
2023/03/26 11:41:20;;;;;;;8.63;2.83;;;;;;;;;;4995163;28;20104;-65
2023/03/26 11:43:49;;;;;;;12.25;1.85;;;;;;;;;;5012979;28;20045;-65
2023/03/26 11:46:17;;;;;;;13.95;2.75;;;;;;;;;;4995050;28;20053;-65
2023/03/26 11:48:46;;;;;;;14.20;1.65;;;;;;;;;;4993757;28;20058;-64
2023/03/26 11:51:22;;;;;;;11.45;1.60;;;;;;;;;;4970778;28;20530;-65
2023/03/26 11:53:48;;;;;;;12.52;1.90;;;;;;;;;;4973906;28;20128;-64
2023/03/26 11:56:24;;;;;;;11.63;1.55;;;;;;;;;;4994866;28;20490;-64
2023/03/26 11:58:59;;;;;;;11.68;1.92;;;;;;;;;;4995049;28;20049;-64
2023/03/26 12:01:43;;;;;;;12.60;2.10;;;;;;;;;;4978169;28;20137;-65
2023/03/26 12:04:13;;;;;;;10.55;1.85;;;;;;;;;;4992515;28;20160;-65
2023/03/26 12:06:49;;;;;;;14.82;2.60;;;;;;;;;;4987629;28;20045;-64
2023/03/26 12:09:16;;;;;;;9.70;1.60;;;;;;;;;;5012302;28;20049;-65
2023/03/26 12:11:44;;;;;;;17.45;2.00;;;;;;;;;;5012392;28;20046;-65
2023/03/26 12:14:16;;;;;;;15.85;2.72;;;;;;;;;;4995098;28;20099;-64
2023/03/26 12:16:56;;;;;;;9.63;1.92;;;;;;;;;;4994658;28;20058;-64
2023/03/26 12:19:23;;;;;;;16.48;2.05;;;;;;;;;;4994071;28;20084;-65
2023/03/26 12:21:50;;;;;;;13.02;2.08;;;;;;;;;;4986404;28;20046;-64
2023/03/26 12:24:33;;;;;;;17.40;2.00;;;;;;;;;;4975276;28;20054;-64
2023/03/26 12:27:19;;;;;;;15.75;2.08;;;;;;;;;;4992624;28;20125;-64
2023/03/26 12:29:53;;;;;;;10.45;2.15;;;;;;;;;;4992661;28;20050;-65
2023/03/26 12:32:20;;;;;;;9.25;2.00;;;;;;;;;;4991979;28;20050;-64
2023/03/26 12:34:47;;;;;;;13.98;1.70;;;;;;;;;;4992462;28;20085;-64
2023/03/26 12:37:31;;;;;;;12.80;3.17;;;;;;;;;;5011558;28;20411;-64
2023/03/26 12:40:16;;;;;;;13.40;2.25;;;;;;;;;;5012086;28;20060;-64
2023/03/26 12:42:50;;;;;;;7.50;2.33;;;;;;;;;;5011436;28;20135;-64
2023/03/26 12:45:19;;;;;;;8.95;1.73;;;;;;;;;;4978367;28;20045;-64
2023/03/26 12:47:45;;;;;;;12.60;2.95;;;;;;;;;;5011601;28;20050;-64
2023/03/26 12:50:13;;;;;;;14.52;2.28;;;;;;;;;;4967092;28;20050;-65
2023/03/26 12:52:51;;;;;;;14.00;2.20;;;;;;;;;;4975379;28;20050;-64
2023/03/26 12:55:24;;;;;;;17.73;2.50;;;;;;;;;;4976353;28;20136;-64
2023/03/26 12:57:50;;;;;;;7.93;1.40;;;;;;;;;;4978396;28;20054;-64
2023/03/26 13:00:27;;;;;;;9.32;1.73;;;;;;;;;;5011053;28;20142;-65
2023/03/26 13:03:05;;;;;;;15.00;2.22;;;;;;;;;;5011926;28;20060;-64
2023/03/26 13:05:53;;;;;;;10.48;2.30;;;;;;;;;;4998592;28;20096;-64
2023/03/26 13:08:33;;;;;;;11.95;2.20;;;;;;;;;;4969911;28;20057;-64
2023/03/26 13:11:05;;;;;;;9.97;2.07;;;;;;;;;;4977514;28;20045;-64
2023/03/26 13:13:35;;;;;;;17.92;3.58;;;;;;;;;;5007897;28;20049;-64
2023/03/26 13:16:21;;;;;;;18.60;1.90;;;8.20;99.90;;;;;;4989867;28;20087;-64
2023/03/26 13:19:00;;;;;;;21.02;3.47;;;;;;;;;;4981549;28;20053;-64
2023/03/26 13:21:29;;;;;;;10.52;1.70;;;;;;;;;;4992411;28;20041;-64
2023/03/26 13:24:03;;;;;;;12.75;1.42;;;;;;;;;;5010539;28;20042;-64
2023/03/26 13:26:32;;;;;;;9.32;2.35;;;;;;;;;;4974911;28;20044;-64
2023/03/26 13:29:04;;;;;;;11.30;1.52;;;;;;;;;;5006694;28;20605;-64
2023/03/26 13:31:35;;;;;;;16.88;6.05;;;;;;;;;;4972028;28;20046;-64
2023/03/26 13:34:18;;;;;;;9.77;1.77;;;;;;;;;;4989882;28;20141;-64
2023/03/26 13:37:11;;;;;;;15.02;1.65;;;8.60;99.90;;;;;;5012140;28;20046;-64
2023/03/26 13:40:03;;;;;;;11.07;2.60;;;;;;;;;;4996568;28;20108;-64
2023/03/26 13:42:48;;;;;;;5.68;1.67;;;;;;;;;;4980136;28;20609;-64
2023/03/26 13:45:24;;;;;;;10.23;1.98;;;;;;;;;;5006763;28;20042;-64
2023/03/26 13:47:51;;;;;;;10.02;1.58;;;;;;;;;;5005175;28;20096;-64
2023/03/26 13:50:32;;;;;;;9.55;1.60;;;;;;;;;;4981580;28;20042;-64
2023/03/26 13:53:16;;;;;;;10.48;2.10;;;;;;;;;;4975186;28;20050;-64
2023/03/26 13:55:49;;;;;;;8.23;1.77;;;;;;;;;;4986185;28;20085;-64
2023/03/26 13:58:33;;;;;;;10.40;1.65;;;;;;;;;;5003891;28;20069;-64
2023/03/26 14:01:06;;;;;;;11.95;1.80;;;;;;;;;;5015372;23;20402;31
2023/03/26 14:03:32;;;;;;;8.10;1.98;;;;;;;;;;4952670;29;20053;-63
2023/03/26 14:06:03;;;;;;;8.27;1.15;;;;;;;;;;4953397;29;20400;-64
2023/03/26 14:08:37;;;;;;;13.50;2.15;;;;;;;;;;4953194;29;20054;-64
2023/03/26 14:11:12;;;;;;;11.00;1.77;;;;;;;;;;4947603;29;20047;-64
2023/03/26 14:13:43;;;;;;;11.00;1.70;;;;;;;;;;4922105;29;20526;-64
2023/03/26 14:16:13;;;;;;;;;;;8.00;99.90;;;;;;4936186;29;20059;-64
2023/03/26 14:18:46;;;;;;;10.48;1.85;;;;;;;;;;4953637;28;19933;-64
2023/03/26 14:21:25;;;;;;;7.82;3.55;;;;;;;;;;4937703;29;20043;-64
2023/03/26 14:23:51;;;;;;;9.95;1.70;;;;;;;;;;4954493;29;20043;-64
2023/03/26 14:26:42;;;;;;;7.57;1.98;;;;;;;;;;4937087;29;20051;-64
2023/03/26 14:29:37;;;;;;;;;;;8.10;99.90;;;;;;4938271;29;20039;-64
2023/03/26 14:32:15;;;;;;;8.63;1.15;;;;;;;;;;4923796;29;20386;-64
2023/03/26 14:34:56;;;;;;;3.78;1.08;;;;;;;;;;4947060;29;20047;-63
2023/03/26 14:37:30;;;;;;;6.82;1.50;;;;;;;;;;4920449;29;20130;-63
2023/03/26 14:40:15;;;;;;;7.15;1.30;;;;;;;;;;4937393;29;20045;-64
2023/03/26 14:42:43;;;;;;;11.75;1.52;;;;;;;;;;4955407;29;20047;-64
2023/03/26 14:45:34;;;;;;;10.02;1.88;;;;;;;;;;4937584;29;20086;-64
2023/03/26 14:48:35;;;;;;;10.50;1.70;;;7.80;99.90;;;;;;4953928;28;20574;-64
2023/03/26 14:51:07;;;;;;;10.18;1.63;;;;;;;;;;4937930;29;20063;-65
2023/03/26 14:53:35;;;;;;;15.60;2.03;;;;;;;;;;4954990;29;20051;-64
2023/03/26 14:56:02;;;;;;;8.60;1.42;;;;;;;;;;4930403;29;20198;-64
2023/03/26 14:58:42;;;;;;;9.88;1.52;;;;;;;;;;4936999;29;20062;-64